sensor_id;sensor_type;location;lat;lon;timestamp;pressure;altitude;pressure_sealevel;temperature;humidity
38812;BME280;24553;51.640;-0.752;2022-09-09T00:00:41;99612.63;;;14.00;100.00
38812;BME280;24553;51.640;-0.752;2022-09-09T00:03:16;99619.56;;;14.01;100.00
38812;BME280;24553;51.640;-0.752;2022-09-09T00:05:59;99611.84;;;14.00;100.00
38812;BME280;24553;51.640;-0.752;2022-09-09T00:11:24;99599.53;;;13.99;100.00
38812;BME280;24553;51.640;-0.752;2022-09-09T00:13:56;99607.31;;;14.00;100.00
38812;BME280;24553;51.640;-0.752;2022-09-09T00:16:28;99605.66;;;13.99;100.00
38812;BME280;24553;51.640;-0.752;2022-09-09T00:19:20;99614.72;;;13.98;100.00
38812;BME280;24553;51.640;-0.752;2022-09-09T00:24:44;99611.00;;;13.99;100.00
38812;BME280;24553;51.640;-0.752;2022-09-09T00:27:22;99613.66;;;13.99;100.00
38812;BME280;24553;51.640;-0.752;2022-09-09T00:30:20;99612.63;;;14.00;100.00
38812;BME280;24553;51.640;-0.752;2022-09-09T00:32:49;99609.38;;;13.98;100.00
38812;BME280;24553;51.640;-0.752;2022-09-09T00:35:31;99614.72;;;13.98;100.00
38812;BME280;24553;51.640;-0.752;2022-09-09T00:38:08;99605.34;;;13.95;100.00
38812;BME280;24553;51.640;-0.752;2022-09-09T00:40:41;99605.00;;;13.92;100.00
38812;BME280;24553;51.640;-0.752;2022-09-09T00:43:32;99612.41;;;13.90;100.00
38812;BME280;24553;51.640;-0.752;2022-09-09T00:52:03;99613.13;;;13.85;100.00
38812;BME280;24553;51.640;-0.752;2022-09-09T00:59:43;99605.47;;;13.65;100.00
38812;BME280;24553;51.640;-0.752;2022-09-09T01:02:28;99611.16;;;13.57;100.00
38812;BME280;24553;51.640;-0.752;2022-09-09T01:05:00;99606.50;;;13.52;100.00
38812;BME280;24553;51.640;-0.752;2022-09-09T01:07:28;99608.03;;;13.48;100.00
38812;BME280;24553;51.640;-0.752;2022-09-09T01:09:58;99609.78;;;13.43;100.00
38812;BME280;24553;51.640;-0.752;2022-09-09T01:12:38;99605.47;;;13.42;100.00
38812;BME280;24553;51.640;-0.752;2022-09-09T01:15:12;99600.03;;;13.37;100.00
38812;BME280;24553;51.640;-0.752;2022-09-09T01:17:50;99600.97;;;13.30;100.00
38812;BME280;24553;51.640;-0.752;2022-09-09T01:20:23;99606.88;;;13.33;100.00
38812;BME280;24553;51.640;-0.752;2022-09-09T01:28:29;99608.13;;;13.42;100.00
38812;BME280;24553;51.640;-0.752;2022-09-09T01:30:57;99605.94;;;13.39;100.00
38812;BME280;24553;51.640;-0.752;2022-09-09T01:33:23;99604.78;;;13.35;100.00
38812;BME280;24553;51.640;-0.752;2022-09-09T01:38:39;99618.91;;;13.35;100.00
38812;BME280;24553;51.640;-0.752;2022-09-09T01:41:04;99617.97;;;13.41;100.00
38812;BME280;24553;51.640;-0.752;2022-09-09T01:43:30;99611.97;;;13.46;100.00
38812;BME280;24553;51.640;-0.752;2022-09-09T01:45:59;99619.28;;;13.50;100.00
38812;BME280;24553;51.640;-0.752;2022-09-09T01:48:26;99615.34;;;13.53;100.00
38812;BME280;24553;51.640;-0.752;2022-09-09T01:50:52;99616.47;;;13.57;100.00
38812;BME280;24553;51.640;-0.752;2022-09-09T01:53:19;99617.06;;;13.59;100.00
38812;BME280;24553;51.640;-0.752;2022-09-09T02:01:54;99620.31;;;13.61;100.00
38812;BME280;24553;51.640;-0.752;2022-09-09T02:04:37;99619.50;;;13.61;100.00
38812;BME280;24553;51.640;-0.752;2022-09-09T02:07:08;99622.97;;;13.61;100.00
38812;BME280;24553;51.640;-0.752;2022-09-09T02:09:36;99621.94;;;13.62;100.00
38812;BME280;24553;51.640;-0.752;2022-09-09T02:12:14;99624.59;;;13.62;100.00
38812;BME280;24553;51.640;-0.752;2022-09-09T02:14:47;99624.13;;;13.65;100.00
38812;BME280;24553;51.640;-0.752;2022-09-09T02:17:18;99627.84;;;13.64;100.00
38812;BME280;24553;51.640;-0.752;2022-09-09T02:19:50;99623.09;;;13.66;100.00
38812;BME280;24553;51.640;-0.752;2022-09-09T02:22:17;99624.72;;;13.67;100.00
38812;BME280;24553;51.640;-0.752;2022-09-09T02:24:45;99628.41;;;13.66;100.00
38812;BME280;24553;51.640;-0.752;2022-09-09T02:27:12;99632.47;;;13.69;100.00
38812;BME280;24553;51.640;-0.752;2022-09-09T02:29:40;99627.38;;;13.67;100.00
38812;BME280;24553;51.640;-0.752;2022-09-09T02:32:17;99623.31;;;13.65;100.00
38812;BME280;24553;51.640;-0.752;2022-09-09T02:34:46;99629.13;;;13.62;100.00
38812;BME280;24553;51.640;-0.752;2022-09-09T02:37:15;99627.72;;;13.59;100.00
38812;BME280;24553;51.640;-0.752;2022-09-09T02:39:42;99635.94;;;13.58;100.00
38812;BME280;24553;51.640;-0.752;2022-09-09T02:42:07;99637.19;;;13.55;100.00
38812;BME280;24553;51.640;-0.752;2022-09-09T02:44:33;99647.28;;;13.53;100.00
38812;BME280;24553;51.640;-0.752;2022-09-09T02:49:44;99645.91;;;13.50;100.00
38812;BME280;24553;51.640;-0.752;2022-09-09T02:52:16;99645.53;;;13.47;100.00
38812;BME280;24553;51.640;-0.752;2022-09-09T02:54:44;99646.00;;;13.44;100.00
38812;BME280;24553;51.640;-0.752;2022-09-09T02:57:21;99651.78;;;13.41;100.00
38812;BME280;24553;51.640;-0.752;2022-09-09T02:59:49;99656.31;;;13.40;100.00
38812;BME280;24553;51.640;-0.752;2022-09-09T03:02:15;99657.47;;;13.44;100.00
38812;BME280;24553;51.640;-0.752;2022-09-09T03:04:41;99650.88;;;13.47;100.00
38812;BME280;24553;51.640;-0.752;2022-09-09T03:07:09;99656.19;;;13.47;100.00
38812;BME280;24553;51.640;-0.752;2022-09-09T03:09:35;99660.50;;;13.48;100.00
38812;BME280;24553;51.640;-0.752;2022-09-09T03:12:00;99664.56;;;13.50;100.00
38812;BME280;24553;51.640;-0.752;2022-09-09T03:14:26;99659.22;;;13.50;100.00
38812;BME280;24553;51.640;-0.752;2022-09-09T03:16:52;99670.22;;;13.54;100.00
38812;BME280;24553;51.640;-0.752;2022-09-09T03:19:18;99658.75;;;13.53;100.00
38812;BME280;24553;51.640;-0.752;2022-09-09T03:21:44;99665.94;;;13.53;100.00
38812;BME280;24553;51.640;-0.752;2022-09-09T03:24:10;99663.03;;;13.55;100.00
38812;BME280;24553;51.640;-0.752;2022-09-09T03:26:36;99669.16;;;13.55;100.00
38812;BME280;24553;51.640;-0.752;2022-09-09T03:29:03;99675.06;;;13.57;100.00
38812;BME280;24553;51.640;-0.752;2022-09-09T03:31:32;99663.41;;;13.58;100.00
38812;BME280;24553;51.640;-0.752;2022-09-09T03:33:57;99662.56;;;13.58;100.00
38812;BME280;24553;51.640;-0.752;2022-09-09T03:36:23;99673.59;;;13.61;100.00
38812;BME280;24553;51.640;-0.752;2022-09-09T03:38:49;99681.00;;;13.59;100.00
38812;BME280;24553;51.640;-0.752;2022-09-09T03:41:15;99679.94;;;13.60;100.00
38812;BME280;24553;51.640;-0.752;2022-09-09T03:43:41;99680.19;;;13.59;100.00
38812;BME280;24553;51.640;-0.752;2022-09-09T03:46:07;99682.03;;;13.58;100.00
38812;BME280;24553;51.640;-0.752;2022-09-09T03:48:32;99682.03;;;13.58;100.00
38812;BME280;24553;51.640;-0.752;2022-09-09T03:50:57;99685.72;;;13.57;100.00
38812;BME280;24553;51.640;-0.752;2022-09-09T03:53:25;99683.31;;;13.56;100.00
38812;BME280;24553;51.640;-0.752;2022-09-09T03:55:53;99691.31;;;13.56;100.00
38812;BME280;24553;51.640;-0.752;2022-09-09T03:58:21;99695.78;;;13.55;100.00
38812;BME280;24553;51.640;-0.752;2022-09-09T04:01:02;99696.84;;;13.54;100.00
38812;BME280;24553;51.640;-0.752;2022-09-09T04:03:28;99700.56;;;13.53;100.00
38812;BME280;24553;51.640;-0.752;2022-09-09T04:05:56;99705.31;;;13.51;100.00
38812;BME280;24553;51.640;-0.752;2022-09-09T04:08:22;99705.53;;;13.49;100.00
38812;BME280;24553;51.640;-0.752;2022-09-09T04:10:50;99712.91;;;13.47;100.00
38812;BME280;24553;51.640;-0.752;2022-09-09T04:13:17;99715.59;;;13.47;100.00
38812;BME280;24553;51.640;-0.752;2022-09-09T04:15:44;99713.16;;;13.46;100.00
38812;BME280;24553;51.640;-0.752;2022-09-09T04:18:10;99716.03;;;13.44;100.00
38812;BME280;24553;51.640;-0.752;2022-09-09T04:20:37;99721.38;;;13.44;100.00
38812;BME280;24553;51.640;-0.752;2022-09-09T04:23:02;99714.44;;;13.43;100.00
38812;BME280;24553;51.640;-0.752;2022-09-09T04:25:28;99706.91;;;13.40;100.00
38812;BME280;24553;51.640;-0.752;2022-09-09T04:27:55;99714.06;;;13.40;100.00
38812;BME280;24553;51.640;-0.752;2022-09-09T04:30:21;99711.84;;;13.37;100.00
38812;BME280;24553;51.640;-0.752;2022-09-09T04:32:47;99705.97;;;13.35;100.00
38812;BME280;24553;51.640;-0.752;2022-09-09T04:35:12;99705.38;;;13.33;100.00
38812;BME280;24553;51.640;-0.752;2022-09-09T04:37:38;99711.72;;;13.31;100.00
38812;BME280;24553;51.640;-0.752;2022-09-09T04:40:03;99705.59;;;13.31;100.00
38812;BME280;24553;51.640;-0.752;2022-09-09T04:42:29;99715.22;;;13.32;100.00
38812;BME280;24553;51.640;-0.752;2022-09-09T04:44:54;99722.38;;;13.31;100.00
38812;BME280;24553;51.640;-0.752;2022-09-09T04:47:20;99718.69;;;13.33;100.00
38812;BME280;24553;51.640;-0.752;2022-09-09T04:49:46;99722.16;;;13.33;100.00
38812;BME280;24553;51.640;-0.752;2022-09-09T04:52:12;99729.34;;;13.33;100.00
38812;BME280;24553;51.640;-0.752;2022-09-09T04:54:37;99728.53;;;13.32;100.00
38812;BME280;24553;51.640;-0.752;2022-09-09T04:57:04;99727.69;;;13.31;100.00
38812;BME280;24553;51.640;-0.752;2022-09-09T04:59:29;99728.75;;;13.30;100.00
38812;BME280;24553;51.640;-0.752;2022-09-09T05:01:55;99736.75;;;13.30;100.00
38812;BME280;24553;51.640;-0.752;2022-09-09T05:04:21;99739.63;;;13.29;100.00
38812;BME280;24553;51.640;-0.752;2022-09-09T05:06:46;99743.91;;;13.30;100.00
38812;BME280;24553;51.640;-0.752;2022-09-09T05:09:12;99745.19;;;13.27;100.00
38812;BME280;24553;51.640;-0.752;2022-09-09T05:11:37;99751.53;;;13.26;100.00
38812;BME280;24553;51.640;-0.752;2022-09-09T05:14:03;99747.84;;;13.27;100.00
38812;BME280;24553;51.640;-0.752;2022-09-09T05:16:29;99750.69;;;13.26;100.00
38812;BME280;24553;51.640;-0.752;2022-09-09T05:18:55;99759.72;;;13.25;100.00
38812;BME280;24553;51.640;-0.752;2022-09-09T05:21:22;99761.59;;;13.24;100.00
38812;BME280;24553;51.640;-0.752;2022-09-09T05:23:48;99756.47;;;13.23;100.00
38812;BME280;24553;51.640;-0.752;2022-09-09T05:26:17;99760.19;;;13.22;100.00
38812;BME280;24553;51.640;-0.752;2022-09-09T05:28:43;99760.41;;;13.20;100.00
38812;BME280;24553;51.640;-0.752;2022-09-09T05:31:10;99759.59;;;13.20;100.00
38812;BME280;24553;51.640;-0.752;2022-09-09T05:33:38;99759.81;;;13.18;100.00
38812;BME280;24553;51.640;-0.752;2022-09-09T05:36:26;99760.25;;;13.15;100.00
38812;BME280;24553;51.640;-0.752;2022-09-09T05:38:51;99765.59;;;13.15;100.00
38812;BME280;24553;51.640;-0.752;2022-09-09T05:41:19;99763.13;;;13.14;100.00
38812;BME280;24553;51.640;-0.752;2022-09-09T05:43:45;99765.78;;;13.14;100.00
38812;BME280;24553;51.640;-0.752;2022-09-09T05:46:14;99770.91;;;13.15;100.00
38812;BME280;24553;51.640;-0.752;2022-09-09T05:48:41;99770.31;;;13.13;100.00
38812;BME280;24553;51.640;-0.752;2022-09-09T05:51:10;99769.72;;;13.11;100.00
38812;BME280;24553;51.640;-0.752;2022-09-09T05:53:41;99770.78;;;13.10;100.00
38812;BME280;24553;51.640;-0.752;2022-09-09T05:56:15;99782.00;;;13.12;100.00
38812;BME280;24553;51.640;-0.752;2022-09-09T05:58:41;99775.03;;;13.11;100.00
38812;BME280;24553;51.640;-0.752;2022-09-09T06:01:13;99780.75;;;13.15;100.00
38812;BME280;24553;51.640;-0.752;2022-09-09T06:03:40;99780.75;;;13.15;100.00
38812;BME280;24553;51.640;-0.752;2022-09-09T06:06:17;99785.63;;;13.18;100.00
38812;BME280;24553;51.640;-0.752;2022-09-09T06:08:44;99779.47;;;13.17;100.00
38812;BME280;24553;51.640;-0.752;2022-09-09T06:11:11;99786.66;;;13.17;100.00
38812;BME280;24553;51.640;-0.752;2022-09-09T06:13:37;99790.13;;;13.17;100.00
38812;BME280;24553;51.640;-0.752;2022-09-09T06:16:05;99788.88;;;13.20;100.00
38812;BME280;24553;51.640;-0.752;2022-09-09T06:18:32;99795.81;;;13.21;100.00
38812;BME280;24553;51.640;-0.752;2022-09-09T06:21:02;99801.59;;;13.18;100.00
38812;BME280;24553;51.640;-0.752;2022-09-09T06:23:29;99803.31;;;13.12;100.00
38812;BME280;24553;51.640;-0.752;2022-09-09T06:26:11;99813.13;;;13.12;100.00
38812;BME280;24553;51.640;-0.752;2022-09-09T06:28:37;99812.31;;;13.11;100.00
38812;BME280;24553;51.640;-0.752;2022-09-09T06:31:06;99810.25;;;13.13;100.00
38812;BME280;24553;51.640;-0.752;2022-09-09T06:33:41;99814.31;;;13.16;100.00
38812;BME280;24553;51.640;-0.752;2022-09-09T06:36:11;99803.44;;;13.17;100.00
38812;BME280;24553;51.640;-0.752;2022-09-09T06:38:37;99814.91;;;13.18;100.00
38812;BME280;24553;51.640;-0.752;2022-09-09T06:41:03;99822.44;;;13.21;100.00
38812;BME280;24553;51.640;-0.752;2022-09-09T06:43:28;99829.59;;;13.20;100.00
38812;BME280;24553;51.640;-0.752;2022-09-09T06:46:07;99829.41;;;13.22;100.00
38812;BME280;24553;51.640;-0.752;2022-09-09T06:48:34;99826.50;;;13.23;100.00
38812;BME280;24553;51.640;-0.752;2022-09-09T06:51:01;99809.13;;;13.21;100.00
38812;BME280;24553;51.640;-0.752;2022-09-09T06:53:27;99822.44;;;13.21;100.00
38812;BME280;24553;51.640;-0.752;2022-09-09T06:55:53;99828.56;;;13.21;100.00
38812;BME280;24553;51.640;-0.752;2022-09-09T06:58:18;99824.44;;;13.25;100.00
38812;BME280;24553;51.640;-0.752;2022-09-09T07:00:43;99826.91;;;13.27;100.00
38812;BME280;24553;51.640;-0.752;2022-09-09T07:03:10;99829.91;;;13.30;100.00
38812;BME280;24553;51.640;-0.752;2022-09-09T07:05:36;99826.44;;;13.30;100.00
38812;BME280;24553;51.640;-0.752;2022-09-09T07:08:01;99833.03;;;13.27;100.00
38812;BME280;24553;51.640;-0.752;2022-09-09T07:10:27;99840.41;;;13.25;100.00
38812;BME280;24553;51.640;-0.752;2022-09-09T07:12:53;99828.56;;;13.21;100.00
38812;BME280;24553;51.640;-0.752;2022-09-09T07:15:18;99833.66;;;13.23;100.00
38812;BME280;24553;51.640;-0.752;2022-09-09T07:17:44;99831.38;;;13.26;100.00
38812;BME280;24553;51.640;-0.752;2022-09-09T07:20:10;99844.28;;;13.29;100.00
38812;BME280;24553;51.640;-0.752;2022-09-09T07:22:36;99839.97;;;13.28;100.00
38812;BME280;24553;51.640;-0.752;2022-09-09T07:25:02;99839.53;;;13.31;100.00
38812;BME280;24553;51.640;-0.752;2022-09-09T07:27:28;99839.09;;;13.35;100.00
38812;BME280;24553;51.640;-0.752;2022-09-09T07:29:53;99840.72;;;13.36;100.00
38812;BME280;24553;51.640;-0.752;2022-09-09T07:32:19;99838.03;;;13.36;100.00
38812;BME280;24553;51.640;-0.752;2022-09-09T07:34:45;99841.06;;;13.39;100.00
38812;BME280;24553;51.640;-0.752;2022-09-09T07:37:12;99838.53;;;13.44;100.00
38812;BME280;24553;51.640;-0.752;2022-09-09T07:39:39;99840.53;;;13.49;100.00
38812;BME280;24553;51.640;-0.752;2022-09-09T07:42:05;99849.13;;;13.51;100.00
38812;BME280;24553;51.640;-0.752;2022-09-09T07:44:30;99852.00;;;13.49;100.00
38812;BME280;24553;51.640;-0.752;2022-09-09T07:47:00;99855.03;;;13.53;100.00
38812;BME280;24553;51.640;-0.752;2022-09-09T07:49:25;99853.63;;;13.50;100.00
38812;BME280;24553;51.640;-0.752;2022-09-09T07:51:50;99857.91;;;13.51;100.00
38812;BME280;24553;51.640;-0.752;2022-09-09T07:54:17;99855.47;;;13.50;100.00
38812;BME280;24553;51.640;-0.752;2022-09-09T07:56:46;99862.56;;;13.56;100.00
38812;BME280;24553;51.640;-0.752;2022-09-09T07:59:12;99865.38;;;13.61;100.00
38812;BME280;24553;51.640;-0.752;2022-09-09T08:01:43;99866.97;;;13.62;100.00
38812;BME280;24553;51.640;-0.752;2022-09-09T08:04:13;99860.63;;;13.63;100.00
38812;BME280;24553;51.640;-0.752;2022-09-09T08:06:59;99866.53;;;13.65;100.00
38812;BME280;24553;51.640;-0.752;2022-09-09T08:09:25;99868.16;;;13.66;100.00
38812;BME280;24553;51.640;-0.752;2022-09-09T08:11:55;99879.97;;;13.70;100.00
38812;BME280;24553;51.640;-0.752;2022-09-09T08:14:22;99872.56;;;13.72;100.00
38812;BME280;24553;51.640;-0.752;2022-09-09T08:16:49;99876.06;;;13.73;100.00
38812;BME280;24553;51.640;-0.752;2022-09-09T08:19:15;99879.75;;;13.72;100.00
38812;BME280;24553;51.640;-0.752;2022-09-09T08:21:42;99885.69;;;13.74;100.00
38812;BME280;24553;51.640;-0.752;2022-09-09T08:24:09;99890.56;;;13.77;100.00
38812;BME280;24553;51.640;-0.752;2022-09-09T08:26:44;99893.00;;;13.79;100.00
38812;BME280;24553;51.640;-0.752;2022-09-09T08:29:11;99901.13;;;13.84;100.00
38812;BME280;24553;51.640;-0.752;2022-09-09T08:31:46;99909.41;;;13.94;100.00
38812;BME280;24553;51.640;-0.752;2022-09-09T08:34:12;99905.91;;;13.93;100.00
38812;BME280;24553;51.640;-0.752;2022-09-09T08:36:40;99908.81;;;13.92;100.00
38812;BME280;24553;51.640;-0.752;2022-09-09T08:39:08;99914.34;;;13.90;100.00
38812;BME280;24553;51.640;-0.752;2022-09-09T08:47:38;99913.69;;;13.95;100.00
38812;BME280;24553;51.640;-0.752;2022-09-09T08:50:30;99917.16;;;13.95;100.00
38812;BME280;24553;51.640;-0.752;2022-09-09T08:58:11;99926.81;;;14.08;100.00
38812;BME280;24553;51.640;-0.752;2022-09-09T09:07:06;99937.16;;;14.16;100.00
38812;BME280;24553;51.640;-0.752;2022-09-09T09:12:15;99946.19;;;14.15;100.00
38812;BME280;24553;51.640;-0.752;2022-09-09T09:14:42;99943.53;;;14.15;100.00
38812;BME280;24553;51.640;-0.752;2022-09-09T09:17:20;99948.84;;;14.15;100.00
38812;BME280;24553;51.640;-0.752;2022-09-09T09:19:47;99954.31;;;14.21;100.00
38812;BME280;24553;51.640;-0.752;2022-09-09T09:22:16;99957.94;;;14.26;100.00
38812;BME280;24553;51.640;-0.752;2022-09-09T09:27:49;99964.78;;;14.34;100.00
38812;BME280;24553;51.640;-0.752;2022-09-09T09:30:21;99965.84;;;14.33;100.00
38812;BME280;24553;51.640;-0.752;2022-09-09T09:32:56;99962.03;;;14.40;100.00
38812;BME280;24553;51.640;-0.752;2022-09-09T09:35:24;99973.19;;;14.49;100.00
38812;BME280;24553;51.640;-0.752;2022-09-09T09:37:50;99975.06;;;14.60;100.00
38812;BME280;24553;51.640;-0.752;2022-09-09T09:40:18;99974.50;;;14.70;100.00
38812;BME280;24553;51.640;-0.752;2022-09-09T09:43:18;99981.03;;;14.86;100.00
38812;BME280;24553;51.640;-0.752;2022-09-09T09:45:45;99978.00;;;14.94;100.00
38812;BME280;24553;51.640;-0.752;2022-09-09T09:48:12;99982.19;;;15.02;100.00
38812;BME280;24553;51.640;-0.752;2022-09-09T09:50:51;99980.34;;;15.02;100.00
38812;BME280;24553;51.640;-0.752;2022-09-09T09:53:29;99984.19;;;14.95;100.00
38812;BME280;24553;51.640;-0.752;2022-09-09T09:58:26;99976.28;;;15.00;100.00
38812;BME280;24553;51.640;-0.752;2022-09-09T10:00:53;99983.13;;;15.08;100.00
38812;BME280;24553;51.640;-0.752;2022-09-09T10:03:29;99989.94;;;15.15;100.00
38812;BME280;24553;51.640;-0.752;2022-09-09T10:05:54;99996.69;;;15.18;100.00
38812;BME280;24553;51.640;-0.752;2022-09-09T10:08:22;99997.63;;;15.12;100.00
38812;BME280;24553;51.640;-0.752;2022-09-09T10:10:51;99996.13;;;15.04;100.00
38812;BME280;24553;51.640;-0.752;2022-09-09T10:13:39;99997.97;;;15.03;100.00
38812;BME280;24553;51.640;-0.752;2022-09-09T10:19:10;99996.00;;;15.22;100.00
38812;BME280;24553;51.640;-0.752;2022-09-09T10:35:26;99982.47;;;15.76;100.00
38812;BME280;24553;51.640;-0.752;2022-09-09T10:38:17;99982.06;;;15.96;100.00
38812;BME280;24553;51.640;-0.752;2022-09-09T10:46:07;99979.34;;;16.70;100.00
38812;BME280;24553;51.640;-0.752;2022-09-09T10:51:31;99954.75;;;16.90;100.00
38812;BME280;24553;51.640;-0.752;2022-09-09T10:56:37;99949.41;;;16.90;100.00
38812;BME280;24553;51.640;-0.752;2022-09-09T10:59:10;99955.91;;;16.94;100.00
38812;BME280;24553;51.640;-0.752;2022-09-09T11:01:43;99962.56;;;16.92;100.00
38812;BME280;24553;51.640;-0.752;2022-09-09T11:04:16;99975.28;;;17.02;100.00
38812;BME280;24553;51.640;-0.752;2022-09-09T11:06:50;99975.59;;;17.22;100.00
38812;BME280;24553;51.640;-0.752;2022-09-09T11:09:22;99973.84;;;17.33;100.00
38812;BME280;24553;51.640;-0.752;2022-09-09T11:11:56;99966.00;;;17.48;100.00
38812;BME280;24553;51.640;-0.752;2022-09-09T11:17:01;99960.84;;;17.63;100.00
38812;BME280;24553;51.640;-0.752;2022-09-09T11:19:42;99965.59;;;18.05;100.00
38812;BME280;24553;51.640;-0.752;2022-09-09T11:30:15;99935.53;;;18.68;100.00
38812;BME280;24553;51.640;-0.752;2022-09-09T11:33:00;99950.22;;;18.55;100.00
38812;BME280;24553;51.640;-0.752;2022-09-09T11:35:34;99955.97;;;19.06;100.00
38812;BME280;24553;51.640;-0.752;2022-09-09T11:40:43;99945.69;;;18.61;100.00
38812;BME280;24553;51.640;-0.752;2022-09-09T11:43:23;99945.69;;;18.61;100.00
38812;BME280;24553;51.640;-0.752;2022-09-09T11:45:54;99950.22;;;18.55;100.00
38812;BME280;24553;51.640;-0.752;2022-09-09T11:48:35;99952.56;;;18.46;100.00
38812;BME280;24553;51.640;-0.752;2022-09-09T11:51:09;99958.59;;;18.59;100.00
38812;BME280;24553;51.640;-0.752;2022-09-09T11:53:50;99963.13;;;18.26;100.00
38812;BME280;24553;51.640;-0.752;2022-09-09T11:56:25;99965.72;;;18.16;100.00
38812;BME280;24553;51.640;-0.752;2022-09-09T11:58:57;99971.63;;;18.18;100.00
38812;BME280;24553;51.640;-0.752;2022-09-09T12:04:13;99975.59;;;18.42;100.00
38812;BME280;24553;51.640;-0.752;2022-09-09T12:06:46;99952.84;;;18.50;100.00
38812;BME280;24553;51.640;-0.752;2022-09-09T12:09:18;99961.78;;;18.61;100.00
38812;BME280;24553;51.640;-0.752;2022-09-09T12:11:46;99953.66;;;18.78;100.00
38812;BME280;24553;51.640;-0.752;2022-09-09T12:14:35;99953.69;;;18.56;100.00
38812;BME280;24553;51.640;-0.752;2022-09-09T12:19:41;99959.59;;;18.52;100.00
38812;BME280;24553;51.640;-0.752;2022-09-09T12:30:58;99968.81;;;19.47;100.00
38812;BME280;24553;51.640;-0.752;2022-09-09T12:33:21;99958.22;;;19.88;100.00
38812;BME280;24553;51.640;-0.752;2022-09-09T12:35:56;99950.19;;;20.13;100.00
38812;BME280;24553;51.640;-0.752;2022-09-09T12:38:34;99959.13;;;20.19;100.00
38812;BME280;24553;51.640;-0.752;2022-09-09T12:41:01;99949.09;;;19.89;100.00
38812;BME280;24553;51.640;-0.752;2022-09-09T12:43:27;99951.84;;;20.30;100.00
38812;BME280;24553;51.640;-0.752;2022-09-09T12:46:02;99947.00;;;20.88;100.00
38812;BME280;24553;51.640;-0.752;2022-09-09T12:48:49;99950.47;;;21.04;100.00
38812;BME280;24553;51.640;-0.752;2022-09-09T12:51:24;99947.97;;;21.38;100.00
38812;BME280;24553;51.640;-0.752;2022-09-09T12:53:51;99950.28;;;21.65;100.00
38812;BME280;24553;51.640;-0.752;2022-09-09T12:56:25;99937.75;;;21.25;100.00
38812;BME280;24553;51.640;-0.752;2022-09-09T12:58:53;99946.38;;;21.11;100.00
38812;BME280;24553;51.640;-0.752;2022-09-09T13:01:24;99947.16;;;21.32;100.00
38812;BME280;24553;51.640;-0.752;2022-09-09T13:03:49;99944.66;;;21.56;100.00
38812;BME280;24553;51.640;-0.752;2022-09-09T13:06:24;99944.28;;;20.98;100.00
38812;BME280;24553;51.640;-0.752;2022-09-09T13:08:52;99937.84;;;20.84;100.00
38812;BME280;24553;51.640;-0.752;2022-09-09T13:11:41;99938.91;;;20.88;100.00
38812;BME280;24553;51.640;-0.752;2022-09-09T13:14:19;99941.38;;;20.69;100.00
38812;BME280;24553;51.640;-0.752;2022-09-09T13:16:59;99943.78;;;20.86;100.00
38812;BME280;24553;51.640;-0.752;2022-09-09T13:19:25;99958.69;;;21.53;100.00
38812;BME280;24553;51.640;-0.752;2022-09-09T13:21:54;99944.44;;;21.48;100.00
38812;BME280;24553;51.640;-0.752;2022-09-09T13:24:32;99953.47;;;20.92;100.00
38812;BME280;24553;51.640;-0.752;2022-09-09T13:27:00;99958.03;;;20.51;100.00
38812;BME280;24553;51.640;-0.752;2022-09-09T13:29:27;99952.41;;;20.62;100.00
38812;BME280;24553;51.640;-0.752;2022-09-09T13:31:53;99957.19;;;21.06;100.00
38812;BME280;24553;51.640;-0.752;2022-09-09T13:34:27;99947.50;;;21.05;100.00
38812;BME280;24553;51.640;-0.752;2022-09-09T13:36:59;99957.19;;;21.01;100.00
38812;BME280;24553;51.640;-0.752;2022-09-09T13:39:27;99962.00;;;21.25;100.00
38812;BME280;24553;51.640;-0.752;2022-09-09T13:41:52;99954.28;;;20.82;100.00
38812;BME280;24553;51.640;-0.752;2022-09-09T13:44:27;99955.09;;;20.67;100.00
38812;BME280;24553;51.640;-0.752;2022-09-09T13:47:03;99948.88;;;20.87;100.00
38812;BME280;24553;51.640;-0.752;2022-09-09T13:49:30;99947.19;;;21.27;100.00
38812;BME280;24553;51.640;-0.752;2022-09-09T13:52:25;99944.97;;;21.45;100.00
38812;BME280;24553;51.640;-0.752;2022-09-09T13:54:52;99953.44;;;21.07;100.00
38812;BME280;24553;51.640;-0.752;2022-09-09T13:57:21;99955.00;;;21.24;100.00
38812;BME280;24553;51.640;-0.752;2022-09-09T13:59:48;99950.91;;;21.42;100.00
38812;BME280;24553;51.640;-0.752;2022-09-09T14:02:14;99957.59;;;21.54;100.00
38812;BME280;24553;51.640;-0.752;2022-09-09T14:04:41;99963.56;;;21.51;100.00
38812;BME280;24553;51.640;-0.752;2022-09-09T14:07:14;99961.25;;;21.84;100.00
38812;BME280;24553;51.640;-0.752;2022-09-09T14:09:40;99962.81;;;21.95;100.00
38812;BME280;24553;51.640;-0.752;2022-09-09T14:12:16;99959.69;;;21.73;100.00
38812;BME280;24553;51.640;-0.752;2022-09-09T14:14:42;99960.09;;;21.30;100.00
38812;BME280;24553;51.640;-0.752;2022-09-09T14:17:08;99956.69;;;21.04;100.00
38812;BME280;24553;51.640;-0.752;2022-09-09T14:19:33;99962.34;;;20.98;100.00
38812;BME280;24553;51.640;-0.752;2022-09-09T14:21:59;99957.78;;;20.78;100.00
38812;BME280;24553;51.640;-0.752;2022-09-09T14:24:26;99972.09;;;20.78;100.00
38812;BME280;24553;51.640;-0.752;2022-09-09T14:26:52;99965.03;;;20.87;100.00
38812;BME280;24553;51.640;-0.752;2022-09-09T14:29:17;99963.66;;;21.10;100.00
38812;BME280;24553;51.640;-0.752;2022-09-09T14:31:43;99972.88;;;20.89;100.00
38812;BME280;24553;51.640;-0.752;2022-09-09T14:34:08;99967.50;;;20.79;100.00
38812;BME280;24553;51.640;-0.752;2022-09-09T14:36:35;99966.69;;;20.78;100.00
38812;BME280;24553;51.640;-0.752;2022-09-09T14:39:00;99965.56;;;20.43;100.00
38812;BME280;24553;51.640;-0.752;2022-09-09T14:41:25;99961.25;;;20.22;100.00
38812;BME280;24553;51.640;-0.752;2022-09-09T14:43:51;99969.00;;;19.98;100.00
38812;BME280;24553;51.640;-0.752;2022-09-09T14:46:18;99973.81;;;19.80;100.00
38812;BME280;24553;51.640;-0.752;2022-09-09T14:48:44;99966.84;;;19.90;100.00